Terminal Aerodrome Forecast
Issued by NWS Cleveland, OH

Home | Current Version | Previous Version | Graphics & Text | Print | Product List | Glossary Off
Versions: 1 2 3 4 5 6 7 8 9 10 11 12 13 14 15 16 17 18 19 20 21

000
FTUS41 KCLE 211100
TAFERI
TAF
KERI 211126Z 2112/2212 33007KT 6SM BR SCT015 OVC035
      TEMPO 2112/2116 3SM -SHRA BR OVC015
     FM211700 32012KT 6SM -SHRA BR OVC018=

USA.gov is the U.S. government's official web portal to all federal, state and local government web resources and services.